Green Lake, Texas
Current Conditions -  °F | °C
As of 7:55 AM on Monday 24 Nov 2014 (Local Time) from KPKV Reporting Station
Clear Clear  
Wind Chill: 51°   Ceiling: Unl
Heat Index: 51°   Visibility: 10mi
Dew Point: 42°   Wind: 13mph
Humidity: 71%   Direction: 360°N
Pressure: 30.02"   Gusts: NA
Location:  28.5342°N, 96.663°W
Report Text: KPKV 241355Z AUTO 36011KT 10SM CLR 11/06 A3002 RMK AO2 T01050055
Loading
Personal Weather Stations






























Interactive Weather Map New forecast layout! Learn more

10-Day Weather Forecast

Advertisements
Track Severe Weather on mobile